createdAt,value
2023-07-18T00:00:07.639Z,100599.31
2023-07-18T00:03:09.552Z,100588.47
2023-07-18T00:06:11.668Z,100589.81
2023-07-18T00:09:13.367Z,100595.28
2023-07-18T00:12:15.439Z,100586.41
2023-07-18T00:15:17.585Z,100590.78
2023-07-18T00:18:19.361Z,100585.84
2023-07-18T00:21:24.446Z,100593.28
2023-07-18T00:24:26.422Z,100597.97
2023-07-18T00:27:28.197Z,100596.31
2023-07-18T00:30:30.045Z,100593.53
2023-07-18T00:33:31.780Z,100599.06
2023-07-18T00:36:33.431Z,100597.13
2023-07-18T00:39:35.381Z,100588.84
2023-07-18T00:42:38.366Z,100584.69
2023-07-18T00:45:40.552Z,100589.00
2023-07-18T00:48:42.548Z,100587.59
2023-07-18T00:51:44.571Z,100583.69
2023-07-18T00:54:46.779Z,100583.19
2023-07-18T00:57:49.593Z,100577.34
2023-07-18T01:00:51.324Z,100583.34
2023-07-18T01:03:53.457Z,100583.03
2023-07-18T01:06:57.311Z,100586.56
2023-07-18T01:10:16.993Z,100587.00
2023-07-18T01:13:18.833Z,100586.34
2023-07-18T01:16:20.612Z,100584.94
2023-07-18T01:19:22.665Z,100584.09
2023-07-18T01:22:24.450Z,100584.69
2023-07-18T01:25:26.402Z,100582.44
2023-07-18T01:28:28.122Z,100576.31
2023-07-18T01:31:29.876Z,100585.94
2023-07-18T01:34:31.747Z,100579.03
2023-07-18T01:37:34.393Z,100577.19
2023-07-18T01:40:36.238Z,100574.94
2023-07-18T01:43:38.114Z,100575.28
2023-07-18T01:46:40.007Z,100569.50
2023-07-18T01:49:41.696Z,100573.94
2023-07-18T01:52:43.381Z,100571.19
2023-07-18T01:55:45.371Z,100576.44
2023-07-18T01:58:47.485Z,100577.25
2023-07-18T02:01:49.491Z,100575.94
2023-07-18T02:04:51.326Z,100580.44
2023-07-18T02:07:53.681Z,100573.91
2023-07-18T02:10:55.431Z,100573.41
2023-07-18T02:13:57.140Z,100581.66
2023-07-18T02:17:01.412Z,100598.72
2023-07-18T02:20:03.419Z,100603.47
2023-07-18T02:23:05.187Z,100609.81
2023-07-18T02:26:07.086Z,100602.81
2023-07-18T02:29:08.928Z,100607.66
2023-07-18T02:32:10.779Z,100612.00
2023-07-18T02:35:15.610Z,100610.00
2023-07-18T02:38:17.281Z,100620.19
2023-07-18T02:41:19.490Z,100621.28
2023-07-18T02:44:21.456Z,100624.28
2023-07-18T02:47:23.211Z,100633.53
2023-07-18T02:50:25.341Z,100636.31
2023-07-18T02:53:27.318Z,100638.69
2023-07-18T02:56:29.015Z,100641.09
2023-07-18T02:59:30.764Z,100649.94
2023-07-18T03:02:33.467Z,100651.88
2023-07-18T03:05:35.253Z,100652.69
2023-07-18T03:08:36.975Z,100659.66
2023-07-18T03:11:38.739Z,100667.44
2023-07-18T03:14:41.171Z,100655.66
2023-07-18T03:17:44.011Z,100654.59
2023-07-18T03:20:45.703Z,100646.56
2023-07-18T03:23:47.424Z,100651.50
2023-07-18T03:26:49.470Z,100655.44
2023-07-18T03:29:51.212Z,100641.03
2023-07-18T03:32:54.560Z,100648.06
2023-07-18T03:35:56.408Z,100648.00
2023-07-18T03:38:58.124Z,100643.81
2023-07-18T03:41:59.863Z,100647.91
2023-07-18T03:45:01.659Z,100637.13
2023-07-18T03:48:03.612Z,100645.97
2023-07-18T03:51:06.423Z,100645.50
2023-07-18T03:54:08.657Z,100654.34
2023-07-18T03:57:10.715Z,100661.53
2023-07-18T04:00:13.013Z,100666.09
2023-07-18T04:03:15.060Z,100668.03
2023-07-18T04:06:17.035Z,100671.34
2023-07-18T04:09:18.741Z,100671.97
2023-07-18T04:12:20.498Z,100671.72
2023-07-18T04:15:22.408Z,100660.50
2023-07-18T04:18:24.528Z,100658.25
2023-07-18T04:21:26.316Z,100656.06
2023-07-18T04:24:28.876Z,100669.44
2023-07-18T04:27:31.045Z,100659.59
2023-07-18T04:30:32.827Z,100664.28
2023-07-18T04:33:36.276Z,100666.84
2023-07-18T04:36:38.651Z,100670.78
2023-07-18T04:39:40.665Z,100674.97
2023-07-18T04:42:42.730Z,100676.31
2023-07-18T04:45:45.926Z,100674.69
2023-07-18T04:48:48.005Z,100677.78
2023-07-18T04:51:50.058Z,100681.63
2023-07-18T04:54:51.773Z,100682.47
2023-07-18T04:57:53.626Z,100683.53
2023-07-18T05:00:56.672Z,100688.47
2023-07-18T05:03:59.437Z,100692.50
2023-07-18T05:07:01.514Z,100698.16
2023-07-18T05:10:03.460Z,100694.81
2023-07-18T05:13:05.528Z,100707.13
2023-07-18T05:16:07.644Z,100710.22
2023-07-18T05:19:09.281Z,100710.34
2023-07-18T05:22:11.013Z,100715.34
2023-07-18T05:25:15.825Z,100711.59
2023-07-18T05:28:18.334Z,100718.87
2023-07-18T05:31:20.497Z,100729.38
2023-07-18T05:34:22.336Z,100717.25
2023-07-18T05:37:24.476Z,100712.44
2023-07-18T05:40:26.251Z,100720.03
2023-07-18T05:43:27.852Z,100716.81
2023-07-18T05:46:32.605Z,100726.34
2023-07-18T05:49:34.318Z,100732.19
2023-07-18T05:52:35.992Z,100729.31
2023-07-18T05:55:37.749Z,100724.16
2023-07-18T05:58:39.571Z,100730.00
2023-07-18T06:01:42.404Z,100727.75
2023-07-18T06:04:44.268Z,100726.44
2023-07-18T06:07:46.071Z,100733.44
2023-07-18T06:10:47.768Z,100737.59
2023-07-18T06:13:50.663Z,100743.13
2023-07-18T06:16:52.497Z,100708.16
2023-07-18T06:19:54.149Z,100749.97
2023-07-18T06:22:56.176Z,100750.38
2023-07-18T06:25:57.935Z,100760.28
2023-07-18T06:28:59.666Z,100753.88
2023-07-18T06:32:01.926Z,100755.59
2023-07-18T06:35:17.131Z,100748.63
2023-07-18T06:38:25.714Z,100738.75
2023-07-18T06:41:27.541Z,100749.34
2023-07-18T06:44:29.573Z,100747.97
2023-07-18T06:47:31.286Z,100746.94
2023-07-18T06:50:32.906Z,100752.25
2023-07-18T06:53:34.750Z,100747.50
2023-07-18T06:56:36.505Z,100749.19
2023-07-18T06:59:38.534Z,100758.59
2023-07-18T07:02:40.410Z,100762.19
2023-07-18T07:05:43.370Z,100757.59
2023-07-18T07:08:45.262Z,100759.50
2023-07-18T07:11:46.964Z,100762.06
2023-07-18T07:14:48.618Z,100774.53
2023-07-18T07:17:51.382Z,100784.84
2023-07-18T07:20:54.024Z,100777.34
2023-07-18T07:23:57.974Z,100788.19
2023-07-18T07:26:59.925Z,100789.31
2023-07-18T07:30:01.589Z,100785.97
2023-07-18T07:33:05.256Z,100792.09
2023-07-18T07:36:06.982Z,100777.09
2023-07-18T07:39:08.808Z,100779.31
2023-07-18T07:42:10.503Z,100771.59
2023-07-18T07:45:14.102Z,100792.69
2023-07-18T07:48:15.787Z,100786.63
2023-07-18T07:51:17.881Z,100786.03
2023-07-18T07:54:19.953Z,100789.66
2023-07-18T07:57:21.934Z,100796.03
2023-07-18T08:00:24.007Z,100778.28
2023-07-18T08:03:26.050Z,100794.06
2023-07-18T08:06:27.871Z,100792.16
2023-07-18T08:09:30.046Z,100793.50
2023-07-18T08:12:31.773Z,100793.94
2023-07-18T08:15:34.405Z,100796.28
2023-07-18T08:18:36.050Z,100800.72
2023-07-18T08:21:37.767Z,100799.03
2023-07-18T08:24:39.631Z,100808.16
2023-07-18T08:27:41.301Z,100803.59
2023-07-18T08:30:44.408Z,100795.06
2023-07-18T08:33:47.363Z,100795.94
2023-07-18T08:36:49.132Z,100792.72
2023-07-18T08:39:50.998Z,100798.19
2023-07-18T08:42:53.220Z,100794.66
2023-07-18T08:45:57.266Z,100792.78
2023-07-18T08:48:59.605Z,100801.56
2023-07-18T08:52:01.302Z,100795.06
2023-07-18T08:55:03.485Z,100794.25
2023-07-18T08:58:06.193Z,100794.19
2023-07-18T09:01:08.803Z,100799.44
2023-07-18T09:04:10.604Z,100795.78
2023-07-18T09:07:14.466Z,100787.25
2023-07-18T09:10:21.808Z,100788.88
2023-07-18T09:13:26.295Z,100793.69
2023-07-18T09:16:29.033Z,100789.41
2023-07-18T09:19:40.622Z,100792.34
2023-07-18T09:22:42.970Z,100785.59
2023-07-18T09:25:44.733Z,100782.56
2023-07-18T09:28:47.309Z,100778.31
2023-07-18T09:31:50.937Z,100780.19
2023-07-18T09:34:54.564Z,100777.59
2023-07-18T09:37:56.766Z,100772.28
2023-07-18T09:40:58.650Z,100765.50
2023-07-18T09:44:27.039Z,100760.94
2023-07-18T09:47:25.267Z,100770.88
2023-07-18T09:50:28.481Z,100755.69
2023-07-18T09:53:31.750Z,100758.47
2023-07-18T09:56:34.769Z,100750.44
2023-07-18T09:59:39.155Z,100761.72
2023-07-18T10:02:40.960Z,100739.44
2023-07-18T10:05:45.284Z,100737.78
2023-07-18T10:08:47.807Z,100746.66
2023-07-18T10:12:07.503Z,100742.16
2023-07-18T10:15:09.329Z,100743.19
2023-07-18T10:18:18.645Z,100732.75
2023-07-18T10:21:31.370Z,100734.38
2023-07-18T10:24:33.781Z,100734.94
2023-07-18T10:27:41.591Z,100726.56
2023-07-18T10:30:46.330Z,100717.91
2023-07-18T10:34:07.940Z,100717.34
2023-07-18T10:37:09.683Z,100708.88
2023-07-18T10:40:30.226Z,100703.97
2023-07-18T10:43:32.621Z,100699.97
2023-07-18T10:46:37.370Z,100697.06
2023-07-18T10:49:39.739Z,100686.47
2023-07-18T10:52:41.976Z,100675.66
2023-07-18T10:55:43.890Z,100679.28
2023-07-18T10:58:45.679Z,100683.63
2023-07-18T11:01:48.076Z,100673.25
2023-07-18T11:04:50.780Z,100663.31
2023-07-18T11:07:55.745Z,100663.97
2023-07-18T11:11:00.345Z,100666.53
2023-07-18T11:14:02.956Z,100671.63
2023-07-18T11:17:12.041Z,100665.06
2023-07-18T11:20:17.289Z,100659.78
2023-07-18T11:23:19.467Z,100656.00
2023-07-18T11:26:21.685Z,100656.12
2023-07-18T11:29:27.141Z,100648.59
2023-07-18T11:32:39.631Z,100641.81
2023-07-18T11:35:45.203Z,100646.34
2023-07-18T11:38:51.260Z,100641.91
2023-07-18T11:42:06.113Z,100637.31
2023-07-18T11:45:11.463Z,100629.06
2023-07-18T11:48:13.975Z,100629.50
2023-07-18T11:51:15.765Z,100627.84
2023-07-18T11:54:17.482Z,100620.34
2023-07-18T11:57:20.502Z,100615.47
2023-07-18T12:00:28.658Z,100618.38
2023-07-18T12:03:30.549Z,100616.66
2023-07-18T12:06:32.247Z,100608.59
2023-07-18T12:09:34.098Z,100610.16
2023-07-18T12:12:35.863Z,100607.06
2023-07-18T12:15:38.454Z,100597.28
2023-07-18T12:18:40.241Z,100590.63
2023-07-18T12:21:42.234Z,100588.09
2023-07-18T12:24:43.909Z,100579.44
2023-07-18T12:27:45.625Z,100580.56
2023-07-18T12:30:47.382Z,100583.56
2023-07-18T12:33:49.431Z,100582.13
2023-07-18T12:36:51.518Z,100580.06
2023-07-18T12:39:57.522Z,100574.25
2023-07-18T12:42:59.261Z,100578.38
2023-07-18T12:46:01.348Z,100568.97
2023-07-18T12:49:04.408Z,100570.28
2023-07-18T12:52:07.756Z,100568.44
2023-07-18T12:55:09.773Z,100558.34
2023-07-18T12:58:12.483Z,100546.22
2023-07-18T13:01:14.707Z,100543.31
2023-07-18T13:04:17.269Z,100542.72
2023-07-18T13:07:19.292Z,100538.00
2023-07-18T13:10:20.978Z,100541.84
2023-07-18T13:13:22.914Z,100535.81
2023-07-18T13:16:25.078Z,100538.47
2023-07-18T13:19:26.704Z,100526.97
2023-07-18T13:22:28.373Z,100533.88
2023-07-18T13:25:30.142Z,100525.19
2023-07-18T13:28:31.797Z,100520.47
2023-07-18T13:31:34.480Z,100511.56
2023-07-18T13:34:37.736Z,100514.16
2023-07-18T13:37:39.693Z,100516.94
2023-07-18T13:40:41.677Z,100514.84
2023-07-18T13:43:44.523Z,100510.22
2023-07-18T13:46:46.786Z,100516.53
2023-07-18T13:49:50.765Z,100515.03
2023-07-18T13:52:52.626Z,100507.03
2023-07-18T13:55:54.690Z,100507.31
2023-07-18T13:58:57.677Z,100508.37
2023-07-18T14:01:59.522Z,100503.44
2023-07-18T14:05:01.278Z,100496.75
2023-07-18T14:08:04.095Z,100493.56
2023-07-18T14:11:05.843Z,100485.38
2023-07-18T14:14:07.561Z,100501.25
2023-07-18T14:17:09.622Z,100494.84
2023-07-18T14:20:12.149Z,100489.81
2023-07-18T14:23:13.859Z,100485.66
2023-07-18T14:26:15.840Z,100477.34
2023-07-18T14:29:18.141Z,100473.09
2023-07-18T14:32:19.823Z,100464.69
2023-07-18T14:35:22.068Z,100468.31
2023-07-18T14:38:23.866Z,100451.56
2023-07-18T14:41:25.508Z,100464.47
2023-07-18T14:44:28.498Z,100462.62
2023-07-18T14:47:30.698Z,100459.69
2023-07-18T14:50:32.788Z,100461.41
2023-07-18T14:53:34.785Z,100456.47
2023-07-18T14:56:36.419Z,100444.25
2023-07-18T14:59:38.499Z,100447.13
2023-07-18T15:02:40.535Z,100447.34
2023-07-18T15:05:43.713Z,100441.78
2023-07-18T15:08:45.462Z,100434.88
2023-07-18T15:11:48.295Z,100446.09
2023-07-18T15:14:50.048Z,100439.59
2023-07-18T15:17:52.062Z,100446.72
2023-07-18T15:20:53.852Z,100439.72
2023-07-18T15:23:55.589Z,100447.91
2023-07-18T15:26:59.553Z,100433.37
2023-07-18T15:30:01.575Z,100436.38
2023-07-18T15:33:12.480Z,100424.53
2023-07-18T15:36:25.696Z,100418.62
2023-07-18T15:39:27.730Z,100408.53
2023-07-18T15:42:30.486Z,100404.47
2023-07-18T15:45:32.263Z,100393.06
2023-07-18T15:48:33.989Z,100394.19
2023-07-18T15:51:38.288Z,100382.84
2023-07-18T15:54:39.974Z,100385.53
2023-07-18T15:57:41.778Z,100375.59
2023-07-18T16:00:43.846Z,100371.12
2023-07-18T16:03:45.691Z,100356.16
2023-07-18T16:06:47.784Z,100346.53
2023-07-18T16:09:51.213Z,100351.94
2023-07-18T16:12:52.834Z,100353.78
2023-07-18T16:15:54.829Z,100351.47
2023-07-18T16:18:59.578Z,100344.16
2023-07-18T16:22:01.258Z,100342.00
2023-07-18T16:25:03.283Z,100343.56
2023-07-18T16:28:05.281Z,100348.25
2023-07-18T16:31:07.042Z,100355.53
2023-07-18T16:34:08.983Z,100360.53
2023-07-18T16:37:10.590Z,100356.25
2023-07-18T16:40:12.490Z,100354.56
2023-07-18T16:43:14.422Z,100343.06
2023-07-18T16:46:16.014Z,100348.06
2023-07-18T16:49:18.086Z,100355.66
2023-07-18T16:52:19.829Z,100362.75
2023-07-18T16:55:21.526Z,100368.31
2023-07-18T16:58:23.488Z,100369.72
2023-07-18T17:01:25.248Z,100362.03
2023-07-18T17:04:26.963Z,100350.44
2023-07-18T17:07:28.636Z,100361.63
2023-07-18T17:10:30.242Z,100367.81
2023-07-18T17:13:32.203Z,100359.25
2023-07-18T17:16:34.012Z,100366.84
2023-07-18T17:19:45.236Z,100362.97
2023-07-18T17:22:57.465Z,100388.00
2023-07-18T17:26:02.498Z,100388.88
2023-07-18T17:29:04.181Z,100399.22
2023-07-18T17:32:06.258Z,100386.78
2023-07-18T17:35:08.303Z,100380.63
2023-07-18T17:38:10.365Z,100391.75
2023-07-18T17:41:12.022Z,100369.94
2023-07-18T17:44:13.749Z,100366.84
2023-07-18T17:47:15.402Z,100375.19
2023-07-18T17:50:17.424Z,100369.63
2023-07-18T17:53:19.151Z,100372.19
2023-07-18T17:56:21.189Z,100372.25
2023-07-18T17:59:23.231Z,100372.59
2023-07-18T18:02:24.983Z,100365.97
2023-07-18T18:05:37.873Z,100375.19
2023-07-18T18:08:39.628Z,100382.41
2023-07-18T18:11:41.570Z,100373.84
2023-07-18T18:14:43.365Z,100378.84
2023-07-18T18:17:45.059Z,100379.19
2023-07-18T18:20:47.060Z,100389.47
2023-07-18T18:23:49.528Z,100399.75
2023-07-18T18:26:51.222Z,100395.66
2023-07-18T18:29:52.822Z,100358.87
2023-07-18T18:32:54.855Z,100383.75
2023-07-18T18:35:57.060Z,100377.94
2023-07-18T18:39:00.026Z,100356.88
2023-07-18T18:42:02.475Z,100353.81
2023-07-18T18:45:05.340Z,100343.84
2023-07-18T18:48:08.291Z,100333.88
2023-07-18T18:51:10.609Z,100338.91
2023-07-18T18:54:12.739Z,100355.03
2023-07-18T18:57:15.023Z,100362.22
2023-07-18T19:00:17.458Z,100363.06
2023-07-18T19:03:19.276Z,100361.47
2023-07-18T19:06:20.980Z,100360.91
2023-07-18T19:09:24.110Z,100342.09
2023-07-18T19:12:26.248Z,100346.00
2023-07-18T19:15:28.717Z,100334.66
2023-07-18T19:18:30.575Z,100321.66
2023-07-18T19:21:34.965Z,100317.53
2023-07-18T19:24:38.658Z,100321.41
2023-07-18T19:27:40.439Z,100304.22
2023-07-18T19:30:42.109Z,100298.13
2023-07-18T19:33:44.248Z,100301.47
2023-07-18T19:36:45.909Z,100292.03
2023-07-18T19:39:47.905Z,100303.12
2023-07-18T19:42:49.847Z,100294.25
2023-07-18T19:45:51.657Z,100292.56
2023-07-18T19:48:53.342Z,100291.50
2023-07-18T19:51:55.420Z,100287.06
2023-07-18T19:55:00.343Z,100285.16
2023-07-18T19:58:02.247Z,100286.28
2023-07-18T20:01:04.083Z,100285.75
2023-07-18T20:04:06.167Z,100280.50
2023-07-18T20:07:08.048Z,100293.81
2023-07-18T20:10:10.285Z,100296.59
2023-07-18T20:13:11.924Z,100290.78
2023-07-18T20:16:14.306Z,100281.91
2023-07-18T20:19:16.059Z,100279.41
2023-07-18T20:22:19.157Z,100285.78
2023-07-18T20:25:20.875Z,100285.53
2023-07-18T20:28:22.503Z,100280.53
2023-07-18T20:31:24.905Z,100254.53
2023-07-18T20:34:26.928Z,100257.59
2023-07-18T20:37:28.928Z,100258.94
2023-07-18T20:40:30.725Z,100254.81
2023-07-18T20:43:32.459Z,100256.22
2023-07-18T20:46:34.224Z,100254.56
2023-07-18T20:49:35.937Z,100244.59
2023-07-18T20:52:38.022Z,100234.06
2023-07-18T20:55:40.009Z,100239.88
2023-07-18T20:58:41.787Z,100223.56
2023-07-18T21:01:43.484Z,100225.25
2023-07-18T21:04:45.238Z,100226.91
2023-07-18T21:07:47.182Z,100216.41
2023-07-18T21:10:48.870Z,100210.34
2023-07-18T21:13:50.515Z,100204.53
2023-07-18T21:16:52.264Z,100210.06
2023-07-18T21:19:53.995Z,100212.56
2023-07-18T21:22:55.876Z,100211.44
2023-07-18T21:25:57.541Z,100200.66
2023-07-18T21:29:04.624Z,100199.28
2023-07-18T21:32:07.697Z,100206.22
2023-07-18T21:35:10.032Z,100197.38
2023-07-18T21:38:11.897Z,100187.66
2023-07-18T21:41:13.639Z,100181.31
2023-07-18T21:44:15.343Z,100177.72
2023-07-18T21:47:17.081Z,100171.34
2023-07-18T21:50:18.760Z,100169.13
2023-07-18T21:53:20.887Z,100175.75
2023-07-18T21:56:22.821Z,100174.97
2023-07-18T21:59:24.825Z,100176.06
2023-07-18T22:02:34.891Z,100167.78
2023-07-18T22:05:36.727Z,100162.22
2023-07-18T22:08:38.378Z,100159.19
2023-07-18T22:11:40.346Z,100169.69
2023-07-18T22:14:41.994Z,100166.09
2023-07-18T22:17:44.100Z,100160.03
2023-07-18T22:20:46.164Z,100165.00
2023-07-18T22:23:47.983Z,100162.44
2023-07-18T22:26:49.638Z,100163.56
2023-07-18T22:29:51.783Z,100159.69
2023-07-18T22:32:54.347Z,100152.78
2023-07-18T22:35:56.422Z,100151.41
2023-07-18T22:38:58.162Z,100140.62
2023-07-18T22:42:21.201Z,100141.44
2023-07-18T22:45:22.929Z,100129.53
2023-07-18T22:48:24.670Z,100120.69
2023-07-18T22:51:26.334Z,100117.38
2023-07-18T22:54:28.173Z,100105.22
2023-07-18T22:57:30.034Z,100108.53
2023-07-18T23:00:31.679Z,100106.59
2023-07-18T23:03:33.694Z,100090.31
2023-07-18T23:06:35.450Z,100083.69
2023-07-18T23:09:37.700Z,100063.81
2023-07-18T23:12:39.341Z,100065.19
2023-07-18T23:15:41.064Z,100060.22
2023-07-18T23:18:42.747Z,100066.56
2023-07-18T23:21:44.783Z,100066.00
2023-07-18T23:24:46.592Z,100066.00
2023-07-18T23:27:48.251Z,100048.06
2023-07-18T23:30:50.696Z,100048.03
2023-07-18T23:33:52.593Z,100046.66
2023-07-18T23:36:54.193Z,100061.84
2023-07-18T23:39:57.645Z,100067.63
2023-07-18T23:42:59.514Z,100074.81
2023-07-18T23:46:01.229Z,100064.00
2023-07-18T23:49:03.245Z,100063.47
2023-07-18T23:52:05.537Z,100062.06
2023-07-18T23:55:08.381Z,100067.84
2023-07-18T23:58:10.164Z,100078.59
